createdAt,value
2023-05-12T00:00:57.742Z,1.88
2023-05-12T00:03:24.899Z,1.90
2023-05-12T00:05:52.000Z,2.10
2023-05-12T00:08:18.851Z,2.00
2023-05-12T00:10:45.741Z,1.90
2023-05-12T00:13:12.674Z,2.00
2023-05-12T00:15:39.605Z,1.65
2023-05-12T00:18:06.663Z,1.95
2023-05-12T00:20:33.512Z,1.85
2023-05-12T00:23:00.504Z,2.00
2023-05-12T00:25:27.353Z,1.95
2023-05-12T00:27:54.296Z,1.88
2023-05-12T00:30:21.450Z,2.00
2023-05-12T00:32:48.646Z,2.15
2023-05-12T00:35:16.801Z,2.00
2023-05-12T00:37:45.122Z,2.05
2023-05-12T00:40:12.340Z,1.90
2023-05-12T00:42:39.147Z,1.92
2023-05-12T00:45:06.658Z,2.10
2023-05-12T00:47:34.537Z,1.98
2023-05-12T00:50:02.491Z,2.03
2023-05-12T00:52:29.501Z,2.00
2023-05-12T00:54:56.465Z,2.00
2023-05-12T00:57:25.972Z,2.10
2023-05-12T00:59:52.963Z,1.83
2023-05-12T01:02:20.212Z,2.03
2023-05-12T01:04:47.779Z,1.90
2023-05-12T01:07:26.352Z,2.22
2023-05-12T01:09:57.092Z,2.00
2023-05-12T01:12:26.846Z,2.30
2023-05-12T01:14:55.715Z,2.30
2023-05-12T01:17:29.824Z,1.80
2023-05-12T01:20:00.232Z,2.03
2023-05-12T01:22:31.410Z,1.80
2023-05-12T01:25:05.144Z,1.80
2023-05-12T01:27:33.984Z,1.90
2023-05-12T01:30:04.616Z,2.08
2023-05-12T01:32:35.758Z,1.98
2023-05-12T01:35:03.777Z,2.08
2023-05-12T01:37:32.686Z,1.95
2023-05-12T01:40:02.622Z,2.22
2023-05-12T01:42:29.803Z,2.25
2023-05-12T01:44:57.770Z,1.90
2023-05-12T01:47:27.250Z,2.08
2023-05-12T01:50:02.592Z,2.10
2023-05-12T01:52:29.433Z,2.00
2023-05-12T01:54:56.805Z,2.28
2023-05-12T01:57:24.897Z,2.00
2023-05-12T01:59:55.500Z,2.20
2023-05-12T02:02:23.132Z,1.95
2023-05-12T02:04:50.214Z,1.77
2023-05-12T02:07:17.147Z,2.05
2023-05-12T02:09:45.487Z,1.73
2023-05-12T02:12:12.662Z,1.80
2023-05-12T02:14:39.562Z,1.98
2023-05-12T02:17:06.495Z,2.22
2023-05-12T02:19:33.458Z,1.92
2023-05-12T02:22:00.472Z,2.00
2023-05-12T02:24:27.341Z,2.10
2023-05-12T02:26:54.201Z,2.13
2023-05-12T02:29:20.995Z,1.98
2023-05-12T02:31:49.052Z,2.00
2023-05-12T02:34:17.414Z,2.30
2023-05-12T02:36:44.278Z,1.92
2023-05-12T02:39:12.249Z,1.90
2023-05-12T02:41:39.428Z,2.10
2023-05-12T02:44:06.705Z,1.88
2023-05-12T02:46:33.623Z,2.10
2023-05-12T02:49:01.037Z,2.30
2023-05-12T02:51:27.962Z,2.05
2023-05-12T02:53:54.978Z,2.08
2023-05-12T02:56:22.585Z,1.98
2023-05-12T02:58:49.412Z,2.28
2023-05-12T03:01:16.252Z,2.33
2023-05-12T03:03:43.393Z,2.00
2023-05-12T03:06:10.775Z,2.40
2023-05-12T03:08:37.778Z,2.83
2023-05-12T03:11:04.730Z,3.00
2023-05-12T03:13:31.989Z,2.70
2023-05-12T03:16:01.671Z,2.40
2023-05-12T03:18:30.249Z,2.00
2023-05-12T03:20:57.297Z,2.20
2023-05-12T03:23:24.966Z,2.08
2023-05-12T03:25:51.876Z,2.03
2023-05-12T03:28:18.832Z,2.20
2023-05-12T03:30:45.725Z,2.00
2023-05-12T03:33:12.648Z,1.95
2023-05-12T03:35:39.549Z,2.08
2023-05-12T03:38:06.782Z,1.92
2023-05-12T03:40:33.744Z,2.97
2023-05-12T03:43:00.575Z,2.50
2023-05-12T03:45:27.463Z,2.20
2023-05-12T03:47:54.416Z,2.33
2023-05-12T03:50:21.587Z,2.03
2023-05-12T03:52:48.541Z,2.33
2023-05-12T03:55:15.485Z,2.10
2023-05-12T03:57:42.986Z,2.50
2023-05-12T04:00:11.687Z,2.45
2023-05-12T04:02:45.038Z,2.28
2023-05-12T04:05:13.933Z,2.30
2023-05-12T04:07:41.896Z,2.28
2023-05-12T04:10:09.101Z,2.10
2023-05-12T04:12:36.010Z,2.13
2023-05-12T04:15:03.754Z,2.15
2023-05-12T04:17:30.878Z,2.38
2023-05-12T04:19:57.865Z,2.03
2023-05-12T04:22:25.822Z,2.03
2023-05-12T04:24:53.546Z,2.03
2023-05-12T04:27:20.894Z,1.90
2023-05-12T04:29:47.919Z,1.92
2023-05-12T04:32:15.388Z,2.58
2023-05-12T04:34:42.264Z,2.00
2023-05-12T04:37:09.367Z,1.98
2023-05-12T04:39:36.745Z,2.13
2023-05-12T04:42:04.455Z,2.45
2023-05-12T04:44:34.960Z,2.10
2023-05-12T04:47:01.903Z,3.38
2023-05-12T04:49:30.514Z,3.03
2023-05-12T04:51:57.413Z,1.83
2023-05-12T04:54:24.604Z,2.25
2023-05-12T04:56:51.867Z,2.28
2023-05-12T04:59:18.842Z,2.28
2023-05-12T05:01:47.850Z,2.50
2023-05-12T05:04:14.811Z,2.30
2023-05-12T05:06:41.720Z,2.20
2023-05-12T05:09:09.018Z,2.50
2023-05-12T05:11:36.414Z,2.70
2023-05-12T05:14:03.204Z,2.60
2023-05-12T05:16:32.730Z,2.28
2023-05-12T05:18:59.769Z,2.25
2023-05-12T05:21:26.677Z,2.30
2023-05-12T05:23:53.586Z,2.35
2023-05-12T05:26:21.732Z,2.30
2023-05-12T05:28:48.631Z,2.33
2023-05-12T05:31:17.079Z,2.67
2023-05-12T05:33:44.532Z,2.20
2023-05-12T05:36:11.497Z,2.45
2023-05-12T05:38:38.717Z,2.72
2023-05-12T05:41:06.555Z,2.50
2023-05-12T05:43:36.579Z,2.42
2023-05-12T05:46:03.522Z,2.40
2023-05-12T05:48:30.318Z,2.33
2023-05-12T05:50:57.478Z,2.45
2023-05-12T05:53:25.517Z,2.47
2023-05-12T05:55:53.044Z,2.20
2023-05-12T05:58:20.206Z,1.88
2023-05-12T06:00:47.856Z,2.22
2023-05-12T06:03:14.907Z,2.60
2023-05-12T06:05:43.728Z,2.33
2023-05-12T06:08:13.534Z,2.10
2023-05-12T06:10:43.542Z,2.05
2023-05-12T06:13:10.776Z,1.85
2023-05-12T06:15:38.259Z,1.80
2023-05-12T06:18:05.277Z,1.98
2023-05-12T06:20:32.985Z,1.98
2023-05-12T06:22:59.864Z,1.98
2023-05-12T06:25:27.145Z,2.13
2023-05-12T06:27:53.967Z,2.42
2023-05-12T06:30:20.908Z,2.20
2023-05-12T06:32:47.850Z,2.20
2023-05-12T06:35:14.729Z,4.35
2023-05-12T06:37:41.626Z,2.55
2023-05-12T06:40:09.190Z,2.35
2023-05-12T06:42:36.024Z,4.32
2023-05-12T06:45:10.985Z,2.13
2023-05-12T06:47:38.109Z,2.83
2023-05-12T06:50:05.433Z,17.35
2023-05-12T06:52:32.286Z,5.50
2023-05-12T06:54:59.120Z,3.70
2023-05-12T06:57:26.273Z,2.35
2023-05-12T06:59:53.321Z,1.60
2023-05-12T07:02:20.230Z,1.90
2023-05-12T07:04:47.156Z,1.50
2023-05-12T07:07:14.006Z,2.45
2023-05-12T07:09:42.435Z,2.95
2023-05-12T07:12:09.388Z,1.50
2023-05-12T07:14:36.193Z,1.65
2023-05-12T07:17:03.033Z,2.28
2023-05-12T07:19:30.041Z,1.40
2023-05-12T07:21:56.959Z,1.65
2023-05-12T07:24:24.080Z,1.90
2023-05-12T07:26:51.074Z,2.20
2023-05-12T07:29:17.952Z,1.58
2023-05-12T07:31:45.073Z,1.50
2023-05-12T07:34:12.032Z,1.77
2023-05-12T07:36:39.025Z,1.55
2023-05-12T07:39:06.058Z,1.90
2023-05-12T07:41:34.613Z,1.50
2023-05-12T07:44:02.473Z,1.73
2023-05-12T07:46:29.379Z,3.72
2023-05-12T07:48:56.289Z,1.73
2023-05-12T07:51:23.294Z,1.73
2023-05-12T07:53:50.171Z,1.77
2023-05-12T07:56:16.947Z,1.73
2023-05-12T07:58:45.348Z,2.90
2023-05-12T08:01:13.507Z,1.95
2023-05-12T08:03:40.647Z,1.70
2023-05-12T08:06:07.571Z,1.75
2023-05-12T08:08:34.811Z,1.80
2023-05-12T08:11:01.710Z,1.90
2023-05-12T08:13:28.484Z,2.10
2023-05-12T08:15:55.566Z,2.85
2023-05-12T08:18:22.448Z,2.00
2023-05-12T08:20:50.368Z,2.50
2023-05-12T08:23:17.683Z,1.80
2023-05-12T08:25:44.706Z,1.75
2023-05-12T08:28:13.043Z,1.65
2023-05-12T08:30:40.509Z,1.55
2023-05-12T08:33:07.507Z,1.70
2023-05-12T08:35:36.145Z,1.77
2023-05-12T08:38:03.339Z,2.22
2023-05-12T08:40:33.627Z,1.50
2023-05-12T08:43:12.561Z,1.60
2023-05-12T08:45:40.534Z,2.00
2023-05-12T08:48:10.843Z,1.77
2023-05-12T08:50:39.028Z,1.60
2023-05-12T08:53:10.385Z,1.88
2023-05-12T08:55:38.376Z,2.30
2023-05-12T08:58:05.404Z,1.80
2023-05-12T09:00:34.959Z,1.73
2023-05-12T09:03:05.486Z,2.30
2023-05-12T09:05:33.133Z,3.63
2023-05-12T09:08:01.209Z,1.60
2023-05-12T09:13:04.436Z,1.63
2023-05-12T09:15:38.621Z,1.23
2023-05-12T09:18:05.788Z,1.40
2023-05-12T09:20:33.195Z,1.50
2023-05-12T09:23:14.872Z,1.40
2023-05-12T09:25:41.668Z,2.10
2023-05-12T09:28:09.034Z,1.77
2023-05-12T09:30:38.398Z,2.20
2023-05-12T09:33:09.969Z,1.60
2023-05-12T09:35:46.824Z,1.73
2023-05-12T09:38:14.869Z,1.50
2023-05-12T09:40:43.231Z,1.52
2023-05-12T09:43:12.566Z,1.73
2023-05-12T09:45:42.457Z,1.40
2023-05-12T09:48:13.909Z,1.42
2023-05-12T09:50:49.013Z,3.30
2023-05-12T09:53:17.993Z,1.33
2023-05-12T09:55:45.715Z,1.92
2023-05-12T09:58:15.628Z,1.60
2023-05-12T10:01:12.870Z,1.55
2023-05-12T10:03:33.558Z,1.48
2023-05-12T10:06:02.747Z,2.38
2023-05-12T10:08:51.389Z,1.75
2023-05-12T10:11:18.935Z,1.38
2023-05-12T10:13:46.699Z,1.48
2023-05-12T10:16:14.487Z,1.73
2023-05-12T10:18:44.523Z,2.03
2023-05-12T10:21:13.124Z,1.30
2023-05-12T10:23:44.418Z,1.15
2023-05-12T10:26:11.636Z,1.58
2023-05-12T10:28:38.566Z,2.50
2023-05-12T10:31:07.532Z,1.20
2023-05-12T10:33:35.068Z,1.75
2023-05-12T10:36:01.948Z,1.48
2023-05-12T10:38:36.479Z,1.45
2023-05-12T10:41:05.936Z,1.55
2023-05-12T10:43:45.346Z,1.73
2023-05-12T10:46:19.606Z,1.40
2023-05-12T10:49:07.860Z,1.40
2023-05-12T10:51:48.598Z,1.45
2023-05-12T10:54:25.136Z,1.33
2023-05-12T10:56:53.220Z,1.50
2023-05-12T10:59:22.781Z,2.03
2023-05-12T11:02:04.008Z,1.60
2023-05-12T11:04:41.766Z,2.28
2023-05-12T11:07:11.983Z,1.50
2023-05-12T11:09:53.089Z,2.05
2023-05-12T11:12:26.757Z,1.70
2023-05-12T11:14:53.944Z,2.90
2023-05-12T11:17:20.810Z,1.38
2023-05-12T11:19:50.307Z,1.33
2023-05-12T11:22:22.520Z,2.00
2023-05-12T11:24:50.694Z,1.83
2023-05-12T11:27:19.779Z,1.60
2023-05-12T11:29:57.024Z,1.40
2023-05-12T11:32:23.947Z,1.42
2023-05-12T11:34:50.768Z,2.25
2023-05-12T11:37:21.130Z,1.30
2023-05-12T11:39:48.573Z,1.30
2023-05-12T11:42:18.636Z,1.60
2023-05-12T11:44:50.416Z,1.50
2023-05-12T11:47:19.826Z,1.50
2023-05-12T11:49:55.919Z,1.80
2023-05-12T11:52:24.612Z,1.30
2023-05-12T11:55:00.915Z,1.40
2023-05-12T11:57:30.145Z,1.70
2023-05-12T12:00:05.677Z,1.55
2023-05-12T12:02:37.504Z,1.50
2023-05-12T12:05:07.778Z,1.20
2023-05-12T12:07:36.790Z,1.95
2023-05-12T12:10:17.033Z,1.25
2023-05-12T12:12:44.418Z,1.70
2023-05-12T12:15:11.752Z,1.00
2023-05-12T12:17:40.039Z,1.30
2023-05-12T12:20:08.464Z,1.50
2023-05-12T12:22:35.521Z,2.10
2023-05-12T12:25:03.570Z,1.70
2023-05-12T12:27:30.573Z,1.10
2023-05-12T12:29:57.473Z,1.35
2023-05-12T12:32:24.488Z,1.30
2023-05-12T12:34:51.983Z,1.38
2023-05-12T12:37:18.980Z,2.05
2023-05-12T12:39:47.855Z,1.40
2023-05-12T12:42:15.617Z,2.25
2023-05-12T12:44:42.988Z,1.85
2023-05-12T12:47:10.004Z,1.45
2023-05-12T12:49:37.049Z,1.08
2023-05-12T12:52:04.087Z,1.23
2023-05-12T12:54:30.986Z,1.40
2023-05-12T12:56:58.494Z,1.60
2023-05-12T12:59:25.437Z,1.15
2023-05-12T13:01:52.762Z,1.75
2023-05-12T13:04:23.009Z,1.42
2023-05-12T13:06:49.968Z,1.30
2023-05-12T13:09:19.698Z,1.20
2023-05-12T13:11:47.842Z,1.98
2023-05-12T13:14:14.795Z,1.65
2023-05-12T13:16:41.969Z,1.20
2023-05-12T13:19:09.120Z,1.48
2023-05-12T13:21:36.068Z,1.83
2023-05-12T13:24:02.930Z,1.65
2023-05-12T13:26:29.804Z,1.80
2023-05-12T13:28:56.785Z,1.90
2023-05-12T13:31:23.606Z,3.40
2023-05-12T13:33:50.740Z,1.30
2023-05-12T13:36:17.794Z,1.58
2023-05-12T13:38:46.701Z,2.10
2023-05-12T13:41:13.813Z,2.20
2023-05-12T13:43:40.619Z,2.38
2023-05-12T13:46:07.655Z,1.92
2023-05-12T13:48:34.486Z,1.48
2023-05-12T13:51:01.327Z,1.80
2023-05-12T13:53:28.148Z,1.35
2023-05-12T13:55:55.004Z,1.80
2023-05-12T13:58:21.803Z,1.50
2023-05-12T14:00:48.758Z,2.47
2023-05-12T14:03:15.617Z,1.73
2023-05-12T14:05:42.450Z,1.35
2023-05-12T14:08:09.274Z,1.20
2023-05-12T14:10:36.115Z,1.23
2023-05-12T14:13:02.980Z,2.10
2023-05-12T14:15:44.319Z,1.88
2023-05-12T14:18:15.239Z,1.45
2023-05-12T14:20:42.480Z,1.63
2023-05-12T14:23:09.440Z,3.33
2023-05-12T14:25:36.285Z,1.42
2023-05-12T14:28:03.745Z,1.60
2023-05-12T14:30:30.991Z,1.20
2023-05-12T14:32:57.997Z,3.45
2023-05-12T14:35:27.912Z,1.98
2023-05-12T14:37:55.690Z,2.30
2023-05-12T14:40:23.511Z,1.88
2023-05-12T14:42:50.471Z,3.20
2023-05-12T14:45:17.772Z,1.90
2023-05-12T14:47:44.903Z,1.67
2023-05-12T14:50:12.077Z,1.50
2023-05-12T14:52:39.045Z,1.60
2023-05-12T14:55:12.350Z,2.95
2023-05-12T14:57:40.548Z,2.67
2023-05-12T15:00:10.897Z,1.60
2023-05-12T15:02:39.039Z,2.13
2023-05-12T15:05:07.273Z,1.20
2023-05-12T15:07:34.373Z,1.75
2023-05-12T15:10:01.334Z,1.13
2023-05-12T15:12:28.355Z,1.77
2023-05-12T15:14:56.396Z,1.20
2023-05-12T15:17:23.598Z,1.10
2023-05-12T15:19:50.459Z,1.20
2023-05-12T15:22:17.335Z,1.50
2023-05-12T15:24:44.459Z,1.27
2023-05-12T15:27:11.302Z,1.50
2023-05-12T15:29:39.381Z,1.40
2023-05-12T15:32:06.875Z,1.20
2023-05-12T15:34:36.768Z,1.20
2023-05-12T15:37:03.744Z,1.48
2023-05-12T15:39:30.667Z,1.48
2023-05-12T15:41:57.595Z,1.30
2023-05-12T15:44:24.735Z,1.20
2023-05-12T15:46:51.575Z,1.30
2023-05-12T15:49:18.554Z,1.40
2023-05-12T15:51:45.389Z,1.20
2023-05-12T15:54:12.612Z,3.17
2023-05-12T15:56:39.600Z,1.63
2023-05-12T15:59:07.478Z,1.40
2023-05-12T16:01:34.368Z,1.20
2023-05-12T16:04:01.421Z,1.50
2023-05-12T16:06:28.403Z,2.58
2023-05-12T16:08:55.687Z,3.80
2023-05-12T16:11:22.533Z,2.92
2023-05-12T16:13:52.208Z,1.98
2023-05-12T16:16:19.770Z,3.83
2023-05-12T16:18:46.848Z,4.05
2023-05-12T16:21:13.908Z,3.65
2023-05-12T16:23:40.744Z,1.50
2023-05-12T16:26:07.680Z,1.55
2023-05-12T16:28:34.706Z,1.67
2023-05-12T16:31:02.759Z,2.15
2023-05-12T16:33:29.978Z,2.10
2023-05-12T16:35:57.550Z,1.65
2023-05-12T16:38:24.442Z,2.05
2023-05-12T16:40:51.388Z,2.97
2023-05-12T16:43:18.294Z,2.17
2023-05-12T16:45:45.291Z,2.05
2023-05-12T16:48:12.613Z,2.33
2023-05-12T16:50:39.573Z,2.20
2023-05-12T16:53:06.745Z,2.40
2023-05-12T16:55:33.593Z,2.05
2023-05-12T16:58:00.455Z,1.92
2023-05-12T17:00:27.264Z,2.00
2023-05-12T17:02:54.267Z,2.35
2023-05-12T17:05:21.784Z,2.47
2023-05-12T17:07:48.990Z,1.70
2023-05-12T17:10:16.134Z,1.88
2023-05-12T17:12:42.991Z,1.77
2023-05-12T17:15:11.486Z,1.83
2023-05-12T17:17:38.397Z,1.77
2023-05-12T17:20:06.157Z,1.92
2023-05-12T17:22:35.037Z,2.20
2023-05-12T17:25:01.839Z,2.17
2023-05-12T17:27:28.663Z,1.58
2023-05-12T17:29:56.817Z,1.65
2023-05-12T17:32:23.691Z,2.13
2023-05-12T17:34:51.337Z,1.73
2023-05-12T17:37:18.371Z,1.90
2023-05-12T17:39:46.260Z,1.95
2023-05-12T17:42:13.207Z,1.80
2023-05-12T17:44:40.010Z,2.40
2023-05-12T17:47:07.538Z,2.55
2023-05-12T17:49:34.404Z,2.13
2023-05-12T17:52:01.196Z,2.10
2023-05-12T17:54:28.134Z,2.40
2023-05-12T17:56:54.989Z,3.10
2023-05-12T17:59:22.035Z,2.58
2023-05-12T18:01:49.108Z,2.80
2023-05-12T18:04:16.025Z,2.50
2023-05-12T18:06:42.904Z,2.33
2023-05-12T18:09:10.086Z,2.40
2023-05-12T18:11:37.164Z,2.80
2023-05-12T18:14:06.054Z,3.05
2023-05-12T18:16:33.569Z,2.85
2023-05-12T18:19:00.742Z,2.20
2023-05-12T18:21:27.721Z,2.72
2023-05-12T18:23:54.626Z,2.70
2023-05-12T18:26:21.934Z,2.75
2023-05-12T18:28:48.756Z,2.13
2023-05-12T18:31:16.722Z,2.45
2023-05-12T18:33:47.702Z,2.30
2023-05-12T18:36:15.266Z,2.70
2023-05-12T18:38:42.579Z,3.00
2023-05-12T18:41:09.983Z,2.90
2023-05-12T18:43:37.122Z,3.33
2023-05-12T18:46:04.499Z,3.67
2023-05-12T18:48:31.595Z,2.67
2023-05-12T18:50:58.645Z,2.45
2023-05-12T18:53:25.588Z,2.35
2023-05-12T18:55:52.406Z,2.83
2023-05-12T18:58:19.359Z,2.50
2023-05-12T19:00:46.207Z,2.70
2023-05-12T19:03:13.127Z,2.13
2023-05-12T19:05:44.959Z,3.00
2023-05-12T19:08:13.020Z,2.63
2023-05-12T19:10:40.339Z,2.45
2023-05-12T19:13:07.400Z,2.55
2023-05-12T19:15:34.395Z,2.47
2023-05-12T19:18:01.226Z,2.38
2023-05-12T19:20:29.091Z,2.50
2023-05-12T19:22:56.161Z,2.55
2023-05-12T19:27:49.916Z,2.40
2023-05-12T19:30:16.914Z,2.35
2023-05-12T19:32:46.160Z,2.13
2023-05-12T19:35:16.756Z,2.92
2023-05-12T19:37:43.969Z,3.70
2023-05-12T19:40:11.252Z,2.78
2023-05-12T19:42:38.161Z,2.90
2023-05-12T19:45:05.661Z,3.40
2023-05-12T19:47:33.561Z,3.33
2023-05-12T19:50:01.035Z,2.83
2023-05-12T19:52:30.799Z,3.08
2023-05-12T19:54:57.958Z,3.05
2023-05-12T19:57:24.775Z,4.57
2023-05-12T19:59:51.969Z,5.97
2023-05-12T20:02:18.866Z,6.38
2023-05-12T20:04:45.794Z,5.75
2023-05-12T20:07:12.738Z,5.65
2023-05-12T20:09:39.574Z,6.47
2023-05-12T20:12:08.090Z,7.45
2023-05-12T20:14:36.249Z,6.85
2023-05-12T20:17:05.851Z,5.35
2023-05-12T20:19:33.370Z,4.90
2023-05-12T20:22:00.331Z,5.20
2023-05-12T20:24:27.726Z,7.28
2023-05-12T20:26:54.675Z,8.23
2023-05-12T20:29:22.370Z,8.75
2023-05-12T20:31:51.067Z,8.93
2023-05-12T20:34:19.541Z,8.95
2023-05-12T20:36:46.997Z,7.03
2023-05-12T20:39:15.229Z,5.88
2023-05-12T20:41:43.557Z,4.93
2023-05-12T20:44:10.982Z,5.07
2023-05-12T20:46:38.838Z,5.65
2023-05-12T20:49:06.149Z,5.82
2023-05-12T20:51:33.484Z,6.10
2023-05-12T20:54:00.520Z,5.57
2023-05-12T20:56:27.418Z,5.28
2023-05-12T20:58:54.308Z,5.20
2023-05-12T21:01:21.262Z,5.20
2023-05-12T21:03:48.597Z,4.50
2023-05-12T21:06:15.533Z,3.83
2023-05-12T21:08:42.417Z,3.25
2023-05-12T21:11:16.763Z,3.30
2023-05-12T21:13:50.116Z,2.80
2023-05-12T21:16:17.243Z,2.72
2023-05-12T21:18:44.388Z,3.33
2023-05-12T21:21:11.424Z,3.78
2023-05-12T21:23:38.279Z,3.70
2023-05-12T21:26:06.016Z,3.42
2023-05-12T21:28:32.870Z,3.42
2023-05-12T21:30:59.748Z,3.13
2023-05-12T21:33:26.616Z,2.97
2023-05-12T21:35:53.759Z,3.15
2023-05-12T21:38:21.014Z,2.72
2023-05-12T21:40:56.419Z,2.67
2023-05-12T21:43:23.304Z,2.65
2023-05-12T21:45:50.454Z,2.95
2023-05-12T21:48:17.867Z,3.00
2023-05-12T21:50:44.703Z,3.00
2023-05-12T21:53:11.744Z,3.00
2023-05-12T21:55:40.707Z,3.13
2023-05-12T21:58:07.550Z,2.80
2023-05-12T22:00:34.417Z,2.67
2023-05-12T22:03:01.290Z,2.42
2023-05-12T22:05:28.246Z,2.70
2023-05-12T22:07:55.575Z,2.63
2023-05-12T22:10:22.564Z,2.63
2023-05-12T22:12:49.569Z,2.40
2023-05-12T22:15:16.393Z,2.25
2023-05-12T22:17:43.430Z,2.33
2023-05-12T22:20:11.079Z,2.30
2023-05-12T22:22:38.410Z,2.70
2023-05-12T22:25:05.717Z,2.40
2023-05-12T22:27:32.511Z,2.60
2023-05-12T22:29:59.278Z,2.50
2023-05-12T22:32:26.185Z,2.42
2023-05-12T22:34:53.974Z,2.13
2023-05-12T22:37:21.055Z,2.40
2023-05-12T22:39:48.275Z,2.45
2023-05-12T22:42:15.067Z,2.60
2023-05-12T22:44:41.914Z,2.30
2023-05-12T22:47:08.935Z,2.42
2023-05-12T22:49:36.060Z,2.50
2023-05-12T22:52:02.865Z,2.20
2023-05-12T22:54:29.643Z,2.47
2023-05-12T22:56:56.558Z,2.58
2023-05-12T22:59:23.375Z,2.78
2023-05-12T23:01:50.249Z,2.65
2023-05-12T23:04:17.236Z,2.50
2023-05-12T23:06:44.281Z,2.53
2023-05-12T23:09:11.143Z,2.50
2023-05-12T23:11:37.990Z,2.17
2023-05-12T23:14:05.092Z,2.33
2023-05-12T23:16:32.123Z,2.30
2023-05-12T23:18:59.133Z,2.70
2023-05-12T23:21:25.941Z,2.40
2023-05-12T23:23:52.851Z,2.35
2023-05-12T23:26:19.650Z,2.55
2023-05-12T23:28:46.482Z,2.53
2023-05-12T23:31:13.348Z,2.50
2023-05-12T23:33:40.260Z,2.50
2023-05-12T23:36:07.595Z,2.35
2023-05-12T23:38:34.902Z,2.30
2023-05-12T23:41:01.811Z,2.50
2023-05-12T23:43:28.625Z,2.40
2023-05-12T23:45:55.754Z,2.35
2023-05-12T23:48:22.546Z,2.20
2023-05-12T23:50:49.757Z,2.25
2023-05-12T23:53:16.613Z,2.63
2023-05-12T23:55:43.401Z,2.30
2023-05-12T23:58:11.379Z,2.40
